sensor_id;sensor_type;location;lat;lon;timestamp;temperature;humidity
6740;DHT22;3407;49.882;10.920;2023-09-19T00:04:04;15.50;20.80
6740;DHT22;3407;49.882;10.920;2023-09-19T00:09:05;15.50;24.10
6740;DHT22;3407;49.882;10.920;2023-09-19T00:14:05;15.50;22.30
6740;DHT22;3407;49.882;10.920;2023-09-19T00:19:03;15.50;25.40
6740;DHT22;3407;49.882;10.920;2023-09-19T00:23:59;15.60;25.00
6740;DHT22;3407;49.882;10.920;2023-09-19T00:28:55;15.50;20.90
6740;DHT22;3407;49.882;10.920;2023-09-19T00:33:52;15.50;22.70
6740;DHT22;3407;49.882;10.920;2023-09-19T00:38:48;15.50;24.40
6740;DHT22;3407;49.882;10.920;2023-09-19T00:43:44;15.50;24.80
6740;DHT22;3407;49.882;10.920;2023-09-19T00:48:41;15.50;26.60
6740;DHT22;3407;49.882;10.920;2023-09-19T00:53:39;15.50;29.30
6740;DHT22;3407;49.882;10.920;2023-09-19T00:58:37;15.60;28.20
6740;DHT22;3407;49.882;10.920;2023-09-19T01:03:34;15.50;25.80
6740;DHT22;3407;49.882;10.920;2023-09-19T01:08:29;15.50;24.90
6740;DHT22;3407;49.882;10.920;2023-09-19T01:13:42;15.50;23.00
6740;DHT22;3407;49.882;10.920;2023-09-19T01:19:01;15.50;21.70
6740;DHT22;3407;49.882;10.920;2023-09-19T01:29:42;15.40;19.70
6740;DHT22;3407;49.882;10.920;2023-09-19T01:34:51;15.40;17.10
6740;DHT22;3407;49.882;10.920;2023-09-19T01:39:51;15.40;15.80
6740;DHT22;3407;49.882;10.920;2023-09-19T01:49:55;15.30;15.00
6740;DHT22;3407;49.882;10.920;2023-09-19T01:54:58;15.40;17.10
6740;DHT22;3407;49.882;10.920;2023-09-19T02:00:14;15.40;17.70
6740;DHT22;3407;49.882;10.920;2023-09-19T02:05:10;15.60;15.70
6740;DHT22;3407;49.882;10.920;2023-09-19T02:10:07;15.70;12.20
6740;DHT22;3407;49.882;10.920;2023-09-19T02:15:05;15.70;8.50
6740;DHT22;3407;49.882;10.920;2023-09-19T02:20:02;15.80;5.80
6740;DHT22;3407;49.882;10.920;2023-09-19T02:24:59;15.80;1.10
6740;DHT22;3407;49.882;10.920;2023-09-19T02:29:56;15.80;1.00
6740;DHT22;3407;49.882;10.920;2023-09-19T02:34:51;15.80;1.00
6740;DHT22;3407;49.882;10.920;2023-09-19T02:39:47;15.90;1.00
6740;DHT22;3407;49.882;10.920;2023-09-19T02:44:42;15.80;1.00
6740;DHT22;3407;49.882;10.920;2023-09-19T02:49:38;15.70;1.00
6740;DHT22;3407;49.882;10.920;2023-09-19T02:54:33;15.60;1.00
6740;DHT22;3407;49.882;10.920;2023-09-19T02:59:29;15.50;1.00
6740;DHT22;3407;49.882;10.920;2023-09-19T03:04:26;15.40;1.00
6740;DHT22;3407;49.882;10.920;2023-09-19T03:09:22;15.40;1.00
6740;DHT22;3407;49.882;10.920;2023-09-19T03:14:18;15.40;1.00
6740;DHT22;3407;49.882;10.920;2023-09-19T03:19:15;15.30;1.00
6740;DHT22;3407;49.882;10.920;2023-09-19T03:24:11;15.30;1.00
6740;DHT22;3407;49.882;10.920;2023-09-19T03:29:06;15.30;1.00
6740;DHT22;3407;49.882;10.920;2023-09-19T03:34:03;15.30;1.00
6740;DHT22;3407;49.882;10.920;2023-09-19T03:38:59;15.20;1.00
6740;DHT22;3407;49.882;10.920;2023-09-19T03:43:55;15.20;1.00
6740;DHT22;3407;49.882;10.920;2023-09-19T03:48:51;15.20;1.00
6740;DHT22;3407;49.882;10.920;2023-09-19T03:53:47;15.30;1.00
6740;DHT22;3407;49.882;10.920;2023-09-19T03:58:44;15.40;1.00
6740;DHT22;3407;49.882;10.920;2023-09-19T04:03:40;15.50;1.00
6740;DHT22;3407;49.882;10.920;2023-09-19T04:08:46;15.60;1.00
6740;DHT22;3407;49.882;10.920;2023-09-19T04:13:42;15.70;1.00
6740;DHT22;3407;49.882;10.920;2023-09-19T04:18:38;15.70;1.00
6740;DHT22;3407;49.882;10.920;2023-09-19T04:23:35;15.80;1.00
6740;DHT22;3407;49.882;10.920;2023-09-19T04:28:31;16.00;1.00
6740;DHT22;3407;49.882;10.920;2023-09-19T04:33:27;16.00;1.00
6740;DHT22;3407;49.882;10.920;2023-09-19T04:38:22;16.10;1.00
6740;DHT22;3407;49.882;10.920;2023-09-19T04:43:18;16.20;1.00
6740;DHT22;3407;49.882;10.920;2023-09-19T04:48:14;16.30;1.00
6740;DHT22;3407;49.882;10.920;2023-09-19T04:53:11;16.30;1.00
6740;DHT22;3407;49.882;10.920;2023-09-19T04:58:08;16.30;1.00
6740;DHT22;3407;49.882;10.920;2023-09-19T05:03:03;16.30;1.00
6740;DHT22;3407;49.882;10.920;2023-09-19T05:07:59;16.30;1.00
6740;DHT22;3407;49.882;10.920;2023-09-19T05:12:55;16.40;1.00
6740;DHT22;3407;49.882;10.920;2023-09-19T05:17:51;16.40;1.00
6740;DHT22;3407;49.882;10.920;2023-09-19T05:22:47;16.40;1.00
6740;DHT22;3407;49.882;10.920;2023-09-19T05:27:43;16.40;1.00
6740;DHT22;3407;49.882;10.920;2023-09-19T05:32:39;16.40;1.00
6740;DHT22;3407;49.882;10.920;2023-09-19T05:37:34;16.40;1.00
6740;DHT22;3407;49.882;10.920;2023-09-19T05:42:29;16.40;1.00
6740;DHT22;3407;49.882;10.920;2023-09-19T05:47:25;16.40;1.00
6740;DHT22;3407;49.882;10.920;2023-09-19T05:52:20;16.40;1.00
6740;DHT22;3407;49.882;10.920;2023-09-19T05:57:17;16.60;1.00
6740;DHT22;3407;49.882;10.920;2023-09-19T06:02:13;16.60;1.00
6740;DHT22;3407;49.882;10.920;2023-09-19T06:07:09;16.70;1.00
6740;DHT22;3407;49.882;10.920;2023-09-19T06:12:04;16.80;1.00
6740;DHT22;3407;49.882;10.920;2023-09-19T06:17:00;17.40;1.00
6740;DHT22;3407;49.882;10.920;2023-09-19T06:21:56;18.10;1.00
6740;DHT22;3407;49.882;10.920;2023-09-19T06:26:51;19.10;99.90
6740;DHT22;3407;49.882;10.920;2023-09-19T06:31:48;20.20;99.90
6740;DHT22;3407;49.882;10.920;2023-09-19T06:36:43;20.90;2.30
6740;DHT22;3407;49.882;10.920;2023-09-19T06:41:40;22.60;90.20
6740;DHT22;3407;49.882;10.920;2023-09-19T06:46:35;23.50;99.90
6740;DHT22;3407;49.882;10.920;2023-09-19T06:51:34;23.80;99.90
6740;DHT22;3407;49.882;10.920;2023-09-19T06:56:29;24.00;99.90
6740;DHT22;3407;49.882;10.920;2023-09-19T07:01:25;23.40;99.90
6740;DHT22;3407;49.882;10.920;2023-09-19T07:06:21;22.50;99.90
6740;DHT22;3407;49.882;10.920;2023-09-19T07:11:16;23.10;99.90
6740;DHT22;3407;49.882;10.920;2023-09-19T07:16:12;25.70;99.90
6740;DHT22;3407;49.882;10.920;2023-09-19T07:21:22;24.90;99.90
6740;DHT22;3407;49.882;10.920;2023-09-19T07:26:18;23.00;99.90
6740;DHT22;3407;49.882;10.920;2023-09-19T07:31:14;21.80;99.90
6740;DHT22;3407;49.882;10.920;2023-09-19T07:36:10;20.70;99.90
6740;DHT22;3407;49.882;10.920;2023-09-19T07:41:07;20.30;1.00
6740;DHT22;3407;49.882;10.920;2023-09-19T07:46:07;20.60;1.00
6740;DHT22;3407;49.882;10.920;2023-09-19T07:51:05;22.40;99.90
6740;DHT22;3407;49.882;10.920;2023-09-19T07:56:02;23.50;99.90
6740;DHT22;3407;49.882;10.920;2023-09-19T08:01:09;24.20;99.90
6740;DHT22;3407;49.882;10.920;2023-09-19T08:06:06;23.70;99.90
6740;DHT22;3407;49.882;10.920;2023-09-19T08:11:02;23.00;99.90
6740;DHT22;3407;49.882;10.920;2023-09-19T08:15:59;22.80;99.90
6740;DHT22;3407;49.882;10.920;2023-09-19T08:20:55;23.20;99.90
6740;DHT22;3407;49.882;10.920;2023-09-19T08:25:50;23.10;99.90
6740;DHT22;3407;49.882;10.920;2023-09-19T08:30:46;24.80;99.90
6740;DHT22;3407;49.882;10.920;2023-09-19T08:35:42;25.50;99.90
6740;DHT22;3407;49.882;10.920;2023-09-19T08:40:38;25.60;99.90
6740;DHT22;3407;49.882;10.920;2023-09-19T08:45:38;25.80;99.90
6740;DHT22;3407;49.882;10.920;2023-09-19T08:50:43;26.70;99.90
6740;DHT22;3407;49.882;10.920;2023-09-19T08:55:40;26.30;99.90
6740;DHT22;3407;49.882;10.920;2023-09-19T09:00:38;25.10;99.90
6740;DHT22;3407;49.882;10.920;2023-09-19T09:05:37;24.70;99.90
6740;DHT22;3407;49.882;10.920;2023-09-19T09:10:36;24.30;99.90
6740;DHT22;3407;49.882;10.920;2023-09-19T09:15:35;24.10;99.90
6740;DHT22;3407;49.882;10.920;2023-09-19T09:20:31;24.20;99.90
6740;DHT22;3407;49.882;10.920;2023-09-19T09:25:54;23.40;99.90
6740;DHT22;3407;49.882;10.920;2023-09-19T09:30:51;23.60;99.90
6740;DHT22;3407;49.882;10.920;2023-09-19T09:36:05;24.40;99.90
6740;DHT22;3407;49.882;10.920;2023-09-19T09:41:01;23.60;99.90
6740;DHT22;3407;49.882;10.920;2023-09-19T09:46:17;23.10;99.90
6740;DHT22;3407;49.882;10.920;2023-09-19T09:51:30;22.90;99.90
6740;DHT22;3407;49.882;10.920;2023-09-19T09:56:25;23.50;99.90
6740;DHT22;3407;49.882;10.920;2023-09-19T10:01:22;24.00;99.90
6740;DHT22;3407;49.882;10.920;2023-09-19T10:06:21;24.00;99.90
6740;DHT22;3407;49.882;10.920;2023-09-19T10:11:20;24.00;99.90
6740;DHT22;3407;49.882;10.920;2023-09-19T10:16:25;23.80;99.90
6740;DHT22;3407;49.882;10.920;2023-09-19T10:21:21;24.20;99.90
6740;DHT22;3407;49.882;10.920;2023-09-19T10:26:18;24.30;99.90
6740;DHT22;3407;49.882;10.920;2023-09-19T10:31:19;24.20;99.90
6740;DHT22;3407;49.882;10.920;2023-09-19T10:36:15;24.20;99.90
6740;DHT22;3407;49.882;10.920;2023-09-19T10:41:14;24.20;99.90
6740;DHT22;3407;49.882;10.920;2023-09-19T10:46:11;24.20;99.90
6740;DHT22;3407;49.882;10.920;2023-09-19T10:51:14;24.70;99.90
6740;DHT22;3407;49.882;10.920;2023-09-19T10:56:10;25.00;99.90
6740;DHT22;3407;49.882;10.920;2023-09-19T11:01:12;25.50;99.90
6740;DHT22;3407;49.882;10.920;2023-09-19T11:06:17;26.30;99.90
6740;DHT22;3407;49.882;10.920;2023-09-19T11:16:34;27.40;99.90
6740;DHT22;3407;49.882;10.920;2023-09-19T11:27:08;28.90;99.90
6740;DHT22;3407;49.882;10.920;2023-09-19T11:32:04;29.50;99.90
6740;DHT22;3407;49.882;10.920;2023-09-19T11:37:01;29.20;98.40
6740;DHT22;3407;49.882;10.920;2023-09-19T11:41:59;28.70;96.40
6740;DHT22;3407;49.882;10.920;2023-09-19T11:46:56;28.50;95.40
6740;DHT22;3407;49.882;10.920;2023-09-19T11:51:54;27.60;95.90
6740;DHT22;3407;49.882;10.920;2023-09-19T11:56:52;27.30;94.40
6740;DHT22;3407;49.882;10.920;2023-09-19T12:01:51;26.60;94.40
6740;DHT22;3407;49.882;10.920;2023-09-19T12:06:58;25.70;95.00
6740;DHT22;3407;49.882;10.920;2023-09-19T12:11:55;25.40;97.80
6740;DHT22;3407;49.882;10.920;2023-09-19T12:16:53;24.80;98.70
6740;DHT22;3407;49.882;10.920;2023-09-19T12:22:01;24.60;99.90
6740;DHT22;3407;49.882;10.920;2023-09-19T12:27:02;24.40;97.40
6740;DHT22;3407;49.882;10.920;2023-09-19T12:32:00;24.40;97.30
6740;DHT22;3407;49.882;10.920;2023-09-19T12:37:09;24.20;97.20
6740;DHT22;3407;49.882;10.920;2023-09-19T12:42:10;24.30;98.30
6740;DHT22;3407;49.882;10.920;2023-09-19T12:47:16;24.20;96.40
6740;DHT22;3407;49.882;10.920;2023-09-19T12:52:13;23.80;98.50
6740;DHT22;3407;49.882;10.920;2023-09-19T12:57:23;23.60;97.50
6740;DHT22;3407;49.882;10.920;2023-09-19T13:02:19;23.50;96.60
6740;DHT22;3407;49.882;10.920;2023-09-19T13:07:44;23.10;96.50
6740;DHT22;3407;49.882;10.920;2023-09-19T13:12:44;23.10;98.10
6740;DHT22;3407;49.882;10.920;2023-09-19T13:17:46;23.40;96.20
6740;DHT22;3407;49.882;10.920;2023-09-19T13:22:44;23.50;95.80
6740;DHT22;3407;49.882;10.920;2023-09-19T13:27:48;23.40;96.70
6740;DHT22;3407;49.882;10.920;2023-09-19T13:32:47;23.40;97.50
6740;DHT22;3407;49.882;10.920;2023-09-19T13:37:43;23.00;97.50
6740;DHT22;3407;49.882;10.920;2023-09-19T13:42:42;22.80;98.70
6740;DHT22;3407;49.882;10.920;2023-09-19T13:47:38;22.90;98.10
6740;DHT22;3407;49.882;10.920;2023-09-19T13:52:34;23.10;97.10
6740;DHT22;3407;49.882;10.920;2023-09-19T13:57:29;23.20;99.10
6740;DHT22;3407;49.882;10.920;2023-09-19T14:02:25;23.20;96.80
6740;DHT22;3407;49.882;10.920;2023-09-19T14:07:21;23.20;95.90
6740;DHT22;3407;49.882;10.920;2023-09-19T14:12:17;23.20;95.80
6740;DHT22;3407;49.882;10.920;2023-09-19T14:17:12;23.20;96.00
6740;DHT22;3407;49.882;10.920;2023-09-19T14:22:10;23.10;96.00
6740;DHT22;3407;49.882;10.920;2023-09-19T14:27:05;22.90;97.90
6740;DHT22;3407;49.882;10.920;2023-09-19T14:32:04;23.10;98.80
6740;DHT22;3407;49.882;10.920;2023-09-19T14:37:00;23.20;99.90
6740;DHT22;3407;49.882;10.920;2023-09-19T14:41:55;23.60;95.50
6740;DHT22;3407;49.882;10.920;2023-09-19T14:46:51;23.80;94.00
6740;DHT22;3407;49.882;10.920;2023-09-19T14:51:46;24.00;92.40
6740;DHT22;3407;49.882;10.920;2023-09-19T14:56:43;24.00;92.60
6740;DHT22;3407;49.882;10.920;2023-09-19T15:01:38;23.80;94.10
6740;DHT22;3407;49.882;10.920;2023-09-19T15:06:35;23.30;93.90
6740;DHT22;3407;49.882;10.920;2023-09-19T15:11:30;23.20;94.80
6740;DHT22;3407;49.882;10.920;2023-09-19T15:16:26;23.00;95.40
6740;DHT22;3407;49.882;10.920;2023-09-19T15:21:22;22.60;95.90
6740;DHT22;3407;49.882;10.920;2023-09-19T15:26:19;22.30;96.30
6740;DHT22;3407;49.882;10.920;2023-09-19T15:31:17;22.10;97.10
6740;DHT22;3407;49.882;10.920;2023-09-19T15:36:13;21.90;97.70
6740;DHT22;3407;49.882;10.920;2023-09-19T15:41:12;21.90;98.40
6740;DHT22;3407;49.882;10.920;2023-09-19T15:46:08;21.80;99.90
6740;DHT22;3407;49.882;10.920;2023-09-19T15:51:04;21.80;99.90
6740;DHT22;3407;49.882;10.920;2023-09-19T15:56:05;21.70;99.90
6740;DHT22;3407;49.882;10.920;2023-09-19T16:01:08;21.40;99.90
6740;DHT22;3407;49.882;10.920;2023-09-19T16:06:11;21.30;99.90
6740;DHT22;3407;49.882;10.920;2023-09-19T16:11:07;21.10;99.90
6740;DHT22;3407;49.882;10.920;2023-09-19T16:16:04;21.00;99.90
6740;DHT22;3407;49.882;10.920;2023-09-19T16:21:03;20.90;99.90
6740;DHT22;3407;49.882;10.920;2023-09-19T16:26:09;20.80;99.90
6740;DHT22;3407;49.882;10.920;2023-09-19T16:31:06;20.70;99.90
6740;DHT22;3407;49.882;10.920;2023-09-19T16:36:02;20.70;99.90
6740;DHT22;3407;49.882;10.920;2023-09-19T16:41:02;20.50;99.90
6740;DHT22;3407;49.882;10.920;2023-09-19T16:46:02;20.40;99.90
6740;DHT22;3407;49.882;10.920;2023-09-19T16:51:04;20.30;99.90
6740;DHT22;3407;49.882;10.920;2023-09-19T16:56:02;20.10;99.90
6740;DHT22;3407;49.882;10.920;2023-09-19T17:00:59;19.90;99.90
6740;DHT22;3407;49.882;10.920;2023-09-19T17:05:58;19.80;99.90
6740;DHT22;3407;49.882;10.920;2023-09-19T17:11:04;19.60;99.90
6740;DHT22;3407;49.882;10.920;2023-09-19T17:16:05;19.40;99.90
6740;DHT22;3407;49.882;10.920;2023-09-19T17:21:03;19.20;99.90
6740;DHT22;3407;49.882;10.920;2023-09-19T17:26:05;19.10;99.90
6740;DHT22;3407;49.882;10.920;2023-09-19T17:31:13;18.80;99.90
6740;DHT22;3407;49.882;10.920;2023-09-19T17:36:20;18.60;99.90
6740;DHT22;3407;49.882;10.920;2023-09-19T17:41:16;18.40;99.90
6740;DHT22;3407;49.882;10.920;2023-09-19T17:46:13;18.30;99.90
6740;DHT22;3407;49.882;10.920;2023-09-19T17:51:09;18.00;99.90
6740;DHT22;3407;49.882;10.920;2023-09-19T17:56:09;17.90;99.90
6740;DHT22;3407;49.882;10.920;2023-09-19T18:01:16;17.70;99.90
6740;DHT22;3407;49.882;10.920;2023-09-19T18:06:16;17.60;99.90
6740;DHT22;3407;49.882;10.920;2023-09-19T18:11:18;17.40;99.90
6740;DHT22;3407;49.882;10.920;2023-09-19T18:16:14;17.20;99.90
6740;DHT22;3407;49.882;10.920;2023-09-19T18:21:12;16.90;99.90
6740;DHT22;3407;49.882;10.920;2023-09-19T18:26:07;16.70;1.00
6740;DHT22;3407;49.882;10.920;2023-09-19T18:31:06;16.60;1.00
6740;DHT22;3407;49.882;10.920;2023-09-19T18:36:06;16.50;1.00
6740;DHT22;3407;49.882;10.920;2023-09-19T18:41:06;16.50;1.00
6740;DHT22;3407;49.882;10.920;2023-09-19T18:46:02;16.40;1.00
6740;DHT22;3407;49.882;10.920;2023-09-19T18:51:07;16.30;1.00
6740;DHT22;3407;49.882;10.920;2023-09-19T18:56:08;16.30;1.00
6740;DHT22;3407;49.882;10.920;2023-09-19T19:01:04;16.20;1.00
6740;DHT22;3407;49.882;10.920;2023-09-19T19:06:09;16.10;5.10
6740;DHT22;3407;49.882;10.920;2023-09-19T19:11:09;15.90;99.90
6740;DHT22;3407;49.882;10.920;2023-09-19T19:16:06;16.00;99.90
6740;DHT22;3407;49.882;10.920;2023-09-19T19:21:07;15.90;1.00
6740;DHT22;3407;49.882;10.920;2023-09-19T19:26:08;15.80;17.00
6740;DHT22;3407;49.882;10.920;2023-09-19T19:31:07;15.80;14.20
6740;DHT22;3407;49.882;10.920;2023-09-19T19:36:08;15.70;99.90
6740;DHT22;3407;49.882;10.920;2023-09-19T19:41:05;15.50;99.90
6740;DHT22;3407;49.882;10.920;2023-09-19T19:46:03;15.50;1.00
6740;DHT22;3407;49.882;10.920;2023-09-19T19:51:04;15.40;1.00
6740;DHT22;3407;49.882;10.920;2023-09-19T19:56:03;15.30;1.00
6740;DHT22;3407;49.882;10.920;2023-09-19T20:01:01;15.20;1.00
6740;DHT22;3407;49.882;10.920;2023-09-19T20:05:56;15.10;99.90
6740;DHT22;3407;49.882;10.920;2023-09-19T20:10:59;15.00;1.00
6740;DHT22;3407;49.882;10.920;2023-09-19T20:15:56;15.00;11.50
6740;DHT22;3407;49.882;10.920;2023-09-19T20:20:52;14.90;99.90
6740;DHT22;3407;49.882;10.920;2023-09-19T20:25:48;14.90;92.00
6740;DHT22;3407;49.882;10.920;2023-09-19T20:30:44;14.80;99.90
6740;DHT22;3407;49.882;10.920;2023-09-19T20:35:40;14.70;1.00
6740;DHT22;3407;49.882;10.920;2023-09-19T20:40:39;14.70;99.90
6740;DHT22;3407;49.882;10.920;2023-09-19T20:45:35;14.60;1.00
6740;DHT22;3407;49.882;10.920;2023-09-19T20:50:36;14.60;1.00
6740;DHT22;3407;49.882;10.920;2023-09-19T20:55:32;14.60;1.00
6740;DHT22;3407;49.882;10.920;2023-09-19T21:00:29;14.60;1.00
6740;DHT22;3407;49.882;10.920;2023-09-19T21:05:25;14.40;1.00
6740;DHT22;3407;49.882;10.920;2023-09-19T21:10:21;14.30;1.00
6740;DHT22;3407;49.882;10.920;2023-09-19T21:15:16;14.40;1.00
6740;DHT22;3407;49.882;10.920;2023-09-19T21:20:13;14.40;99.90
6740;DHT22;3407;49.882;10.920;2023-09-19T21:25:08;14.30;1.00
6740;DHT22;3407;49.882;10.920;2023-09-19T21:30:04;14.20;99.90
6740;DHT22;3407;49.882;10.920;2023-09-19T21:35:00;14.30;99.90
6740;DHT22;3407;49.882;10.920;2023-09-19T21:39:56;14.30;1.00
6740;DHT22;3407;49.882;10.920;2023-09-19T21:44:51;14.30;1.00
6740;DHT22;3407;49.882;10.920;2023-09-19T21:49:47;14.30;99.90
6740;DHT22;3407;49.882;10.920;2023-09-19T21:54:42;14.30;99.90
6740;DHT22;3407;49.882;10.920;2023-09-19T21:59:38;14.20;99.90
6740;DHT22;3407;49.882;10.920;2023-09-19T22:04:33;14.20;99.90
6740;DHT22;3407;49.882;10.920;2023-09-19T22:09:29;14.20;99.90
6740;DHT22;3407;49.882;10.920;2023-09-19T22:14:25;14.10;99.90
6740;DHT22;3407;49.882;10.920;2023-09-19T22:19:24;14.10;99.90
6740;DHT22;3407;49.882;10.920;2023-09-19T22:24:20;14.10;99.90
6740;DHT22;3407;49.882;10.920;2023-09-19T22:29:16;14.00;41.30
6740;DHT22;3407;49.882;10.920;2023-09-19T22:34:12;14.10;99.90
6740;DHT22;3407;49.882;10.920;2023-09-19T22:39:08;14.10;99.90
6740;DHT22;3407;49.882;10.920;2023-09-19T22:44:08;14.00;1.00
6740;DHT22;3407;49.882;10.920;2023-09-19T22:49:05;13.90;42.00
6740;DHT22;3407;49.882;10.920;2023-09-19T22:54:11;13.80;99.90
6740;DHT22;3407;49.882;10.920;2023-09-19T22:59:07;13.80;1.00
6740;DHT22;3407;49.882;10.920;2023-09-19T23:04:04;13.80;1.00
6740;DHT22;3407;49.882;10.920;2023-09-19T23:09:09;13.80;1.00
6740;DHT22;3407;49.882;10.920;2023-09-19T23:14:13;13.70;1.00
6740;DHT22;3407;49.882;10.920;2023-09-19T23:19:10;13.60;81.60
6740;DHT22;3407;49.882;10.920;2023-09-19T23:24:25;13.70;1.00
6740;DHT22;3407;49.882;10.920;2023-09-19T23:29:25;13.60;1.00
6740;DHT22;3407;49.882;10.920;2023-09-19T23:34:20;13.60;39.00
6740;DHT22;3407;49.882;10.920;2023-09-19T23:39:16;13.60;22.10
6740;DHT22;3407;49.882;10.920;2023-09-19T23:44:14;13.60;1.00
6740;DHT22;3407;49.882;10.920;2023-09-19T23:49:09;13.50;19.90
6740;DHT22;3407;49.882;10.920;2023-09-19T23:54:06;13.50;1.00
6740;DHT22;3407;49.882;10.920;2023-09-19T23:59:19;13.40;19.00
